createdAt,value
2022-09-16T00:00:32.819Z,94894.25
2022-09-16T00:03:34.645Z,94891.84
2022-09-16T00:06:39.359Z,94878.63
2022-09-16T00:09:41.360Z,94890.31
2022-09-16T00:12:44.203Z,94890.09
2022-09-16T00:15:47.326Z,94889.47
2022-09-16T00:18:49.184Z,94892.19
2022-09-16T00:21:52.985Z,94887.22
2022-09-16T00:24:56.575Z,94892.25
2022-09-16T00:27:58.343Z,94900.34
2022-09-16T00:31:01.773Z,94887.88
2022-09-16T00:34:05.801Z,94884.81
2022-09-16T00:37:09.124Z,94884.59
2022-09-16T00:40:11.167Z,94890.66
2022-09-16T00:43:14.969Z,94888.28
2022-09-16T00:46:17.984Z,94890.91
2022-09-16T00:49:21.121Z,94885.50
2022-09-16T00:52:27.081Z,94894.59
2022-09-16T00:55:30.946Z,94891.66
2022-09-16T00:58:39.349Z,94889.16
2022-09-16T01:01:43.436Z,94887.03
2022-09-16T01:04:51.551Z,94881.84
2022-09-16T01:07:55.195Z,94886.03
2022-09-16T01:10:57.038Z,94877.03
2022-09-16T01:13:59.402Z,94872.44
2022-09-16T01:17:07.268Z,94882.56
2022-09-16T01:20:14.782Z,94872.38
2022-09-16T01:23:38.006Z,94871.03
2022-09-16T01:26:51.345Z,94868.38
2022-09-16T01:30:27.311Z,94863.34
2022-09-16T01:33:39.399Z,94860.63
2022-09-16T01:36:48.783Z,94870.25
2022-09-16T01:40:02.192Z,94863.63
2022-09-16T01:43:11.272Z,94865.94
2022-09-16T01:46:20.112Z,94875.94
2022-09-16T01:49:26.391Z,94866.59
2022-09-16T01:52:35.557Z,94866.16
2022-09-16T01:55:45.624Z,94871.59
2022-09-16T01:58:50.452Z,94866.59
2022-09-16T02:01:55.737Z,94857.25
2022-09-16T02:05:03.787Z,94860.06
2022-09-16T02:08:06.954Z,94864.44
2022-09-16T02:11:12.500Z,94855.53
2022-09-16T02:14:15.385Z,94845.03
2022-09-16T02:17:21.065Z,94850.53
2022-09-16T02:20:27.021Z,94850.63
2022-09-16T02:23:32.817Z,94846.03
2022-09-16T02:26:38.283Z,94848.41
2022-09-16T02:29:43.003Z,94844.66
2022-09-16T02:32:46.790Z,94843.47
2022-09-16T02:35:55.701Z,94839.63
2022-09-16T02:39:00.878Z,94837.91
2022-09-16T02:42:04.250Z,94838.69
2022-09-16T02:45:12.355Z,94828.53
2022-09-16T02:48:20.774Z,94834.72
2022-09-16T02:51:28.975Z,94839.88
2022-09-16T02:54:35.397Z,94831.72
2022-09-16T02:57:37.657Z,94840.91
2022-09-16T03:00:40.817Z,94826.81
2022-09-16T03:03:44.151Z,94828.44
2022-09-16T03:06:49.433Z,94822.56
2022-09-16T03:09:51.447Z,94822.16
2022-09-16T03:12:58.335Z,94801.94
2022-09-16T03:16:03.986Z,94804.31
2022-09-16T03:19:15.630Z,94808.56
2022-09-16T03:22:26.582Z,94815.44
2022-09-16T03:25:37.841Z,94808.72
2022-09-16T03:28:48.010Z,94803.56
2022-09-16T03:31:53.594Z,94797.59
2022-09-16T03:34:59.807Z,94793.69
2022-09-16T03:38:05.312Z,94789.44
2022-09-16T03:41:07.464Z,94780.84
2022-09-16T03:44:12.638Z,94772.88
2022-09-16T03:47:17.346Z,94769.06
2022-09-16T03:50:20.382Z,94786.38
2022-09-16T03:53:28.601Z,94789.41
2022-09-16T03:56:32.040Z,94791.03
2022-09-16T03:59:37.923Z,94788.66
2022-09-16T04:02:40.933Z,94781.94
2022-09-16T04:05:44.582Z,94784.00
2022-09-16T04:08:49.747Z,94785.44
2022-09-16T04:11:51.935Z,94775.03
2022-09-16T04:14:53.813Z,94774.09
2022-09-16T04:17:55.776Z,94770.91
2022-09-16T04:20:57.505Z,94776.44
2022-09-16T04:24:04.273Z,94781.19
2022-09-16T04:27:07.356Z,94782.41
2022-09-16T04:30:11.628Z,94790.25
2022-09-16T04:33:13.703Z,94780.09
2022-09-16T04:36:16.465Z,94778.75
2022-09-16T04:39:19.576Z,94778.50
2022-09-16T04:42:23.152Z,94791.78
2022-09-16T04:45:26.910Z,94789.97
2022-09-16T04:48:29.482Z,94789.06
2022-09-16T04:51:32.550Z,94793.78
2022-09-16T04:54:35.743Z,94788.38
2022-09-16T04:57:37.812Z,94788.75
2022-09-16T05:00:42.482Z,94789.16
2022-09-16T05:03:45.430Z,94792.75
2022-09-16T05:06:47.725Z,94796.94
2022-09-16T05:09:51.032Z,94807.53
2022-09-16T05:12:56.810Z,94801.34
2022-09-16T05:16:03.780Z,94800.75
2022-09-16T05:19:07.771Z,94806.03
2022-09-16T05:22:09.926Z,94809.09
2022-09-16T05:25:16.717Z,94807.16
2022-09-16T05:28:18.490Z,94808.69
2022-09-16T05:31:25.967Z,94808.06
2022-09-16T05:34:29.137Z,94807.28
2022-09-16T05:37:30.818Z,94813.16
2022-09-16T05:40:33.823Z,94822.13
2022-09-16T05:43:36.944Z,94823.31
2022-09-16T05:46:40.474Z,94808.75
2022-09-16T05:49:42.439Z,94802.09
2022-09-16T05:52:45.060Z,94800.47
2022-09-16T05:55:58.830Z,94806.63
2022-09-16T05:59:03.878Z,94797.00
2022-09-16T06:02:08.567Z,94798.88
2022-09-16T06:05:10.415Z,94804.91
2022-09-16T06:08:16.286Z,94803.03
2022-09-16T06:11:24.066Z,94801.28
2022-09-16T06:14:26.365Z,94807.38
2022-09-16T06:17:28.265Z,94800.66
2022-09-16T06:20:31.022Z,94801.59
2022-09-16T06:23:35.132Z,94801.81
2022-09-16T06:26:41.065Z,94802.66
2022-09-16T06:29:42.827Z,94801.59
2022-09-16T06:32:44.556Z,94806.34
2022-09-16T06:35:46.243Z,94810.09
2022-09-16T06:38:48.037Z,94808.81
2022-09-16T06:41:51.489Z,94805.97
2022-09-16T06:44:53.848Z,94806.03
2022-09-16T06:47:58.882Z,94807.44
2022-09-16T06:51:04.274Z,94806.38
2022-09-16T06:54:06.795Z,94815.91
2022-09-16T06:57:12.442Z,94802.22
2022-09-16T07:00:14.702Z,94804.50
2022-09-16T07:03:18.353Z,94803.91
2022-09-16T07:06:21.701Z,94811.53
2022-09-16T07:09:23.573Z,94804.09
2022-09-16T07:12:30.290Z,94806.03
2022-09-16T07:15:33.877Z,94812.72
2022-09-16T07:18:37.357Z,94809.91
2022-09-16T07:21:41.702Z,94813.34
2022-09-16T07:24:43.585Z,94814.13
2022-09-16T07:27:46.978Z,94815.16
2022-09-16T07:30:52.541Z,94815.09
2022-09-16T07:33:58.977Z,94823.75
2022-09-16T07:37:03.371Z,94816.84
2022-09-16T07:40:07.560Z,94822.13
2022-09-16T07:43:13.148Z,94821.56
2022-09-16T07:46:16.578Z,94821.50
2022-09-16T07:49:19.021Z,94828.47
2022-09-16T07:52:21.335Z,94824.13
2022-09-16T07:55:23.204Z,94830.97
2022-09-16T07:58:27.572Z,94839.31
2022-09-16T08:01:29.380Z,94834.16
2022-09-16T08:04:32.830Z,94838.75
2022-09-16T08:07:36.599Z,94834.06
2022-09-16T08:10:38.888Z,94835.25
2022-09-16T08:13:42.656Z,94833.72
2022-09-16T08:16:47.185Z,94837.31
2022-09-16T08:19:49.063Z,94834.81
2022-09-16T08:22:56.061Z,94832.34
2022-09-16T08:26:01.966Z,94830.00
2022-09-16T08:29:09.053Z,94831.44
2022-09-16T08:32:13.514Z,94829.81
2022-09-16T08:35:18.102Z,94836.22
2022-09-16T08:38:22.302Z,94838.88
2022-09-16T08:41:33.223Z,94845.47
2022-09-16T08:44:46.015Z,94836.06
2022-09-16T08:48:06.419Z,94834.03
2022-09-16T08:51:11.311Z,94828.75
2022-09-16T08:54:18.429Z,94835.53
2022-09-16T08:57:26.820Z,94832.38
2022-09-16T09:00:32.252Z,94829.53
2022-09-16T09:03:36.725Z,94838.34
2022-09-16T09:06:46.537Z,94832.56
2022-09-16T09:09:54.850Z,94829.78
2022-09-16T09:13:00.630Z,94829.97
2022-09-16T09:16:13.682Z,94823.69
2022-09-16T09:19:23.963Z,94816.97
2022-09-16T09:22:31.697Z,94828.78
2022-09-16T09:25:39.970Z,94823.63
2022-09-16T09:29:00.505Z,94823.28
2022-09-16T09:32:07.572Z,94817.00
2022-09-16T09:35:18.208Z,94812.66
2022-09-16T09:38:42.473Z,94804.06
2022-09-16T09:41:48.984Z,94799.31
2022-09-16T09:44:56.193Z,94813.91
2022-09-16T09:48:06.271Z,94804.75
2022-09-16T09:51:23.847Z,94787.91
2022-09-16T09:54:27.757Z,94797.16
2022-09-16T09:57:36.457Z,94796.31
2022-09-16T10:00:38.444Z,94802.59
2022-09-16T10:03:42.082Z,94803.63
2022-09-16T10:06:45.055Z,94797.50
2022-09-16T10:09:49.579Z,94789.75
2022-09-16T10:12:53.401Z,94802.66
2022-09-16T10:16:11.753Z,94795.38
2022-09-16T10:19:18.919Z,94784.75
2022-09-16T10:22:23.910Z,94770.03
2022-09-16T10:25:25.935Z,94774.72
2022-09-16T10:28:28.515Z,94774.28
2022-09-16T10:31:35.779Z,94773.44
2022-09-16T10:34:41.368Z,94773.44
2022-09-16T10:37:48.773Z,94770.72
2022-09-16T10:40:51.468Z,94756.63
2022-09-16T10:43:55.236Z,94763.91
2022-09-16T10:46:58.835Z,94764.75
2022-09-16T10:50:06.376Z,94769.75
2022-09-16T10:53:21.731Z,94765.00
2022-09-16T10:56:26.616Z,94773.50
2022-09-16T10:59:28.998Z,94765.22
2022-09-16T11:02:43.633Z,94763.84
2022-09-16T11:05:54.155Z,94771.53
2022-09-16T11:09:05.840Z,94776.91
2022-09-16T11:12:21.455Z,94769.84
2022-09-16T11:15:34.350Z,94762.69
2022-09-16T11:18:50.750Z,94760.63
2022-09-16T11:22:02.096Z,94761.63
2022-09-16T11:25:19.733Z,94754.59
2022-09-16T11:28:37.253Z,94751.94
2022-09-16T11:31:46.621Z,94752.59
2022-09-16T11:34:55.636Z,94750.84
2022-09-16T11:38:05.518Z,94744.66
2022-09-16T11:41:11.738Z,94745.28
2022-09-16T11:44:28.378Z,94735.81
2022-09-16T11:47:43.058Z,94737.34
2022-09-16T11:50:48.321Z,94730.09
2022-09-16T11:54:02.341Z,94737.56
2022-09-16T11:57:10.825Z,94735.81
2022-09-16T12:00:27.432Z,94726.78
2022-09-16T12:03:38.131Z,94730.91
2022-09-16T12:06:42.857Z,94725.88
2022-09-16T12:09:50.727Z,94718.41
2022-09-16T12:12:54.250Z,94714.84
2022-09-16T12:15:57.795Z,94708.72
2022-09-16T12:19:06.902Z,94696.31
2022-09-16T12:22:14.028Z,94691.00
2022-09-16T12:25:19.404Z,94690.16
2022-09-16T12:28:26.341Z,94697.66
2022-09-16T12:31:30.789Z,94697.22
2022-09-16T12:34:34.674Z,94694.63
2022-09-16T12:37:39.553Z,94700.72
2022-09-16T12:40:52.285Z,94692.53
2022-09-16T12:44:17.255Z,94685.44
2022-09-16T12:47:37.775Z,94678.03
2022-09-16T12:51:03.548Z,94677.91
2022-09-16T12:54:23.591Z,94681.25
2022-09-16T12:57:41.525Z,94676.97
2022-09-16T13:00:54.344Z,94685.25
2022-09-16T13:03:58.059Z,94683.63
2022-09-16T13:07:01.603Z,94686.66
2022-09-16T13:10:05.704Z,94683.09
2022-09-16T13:13:18.180Z,94674.72
2022-09-16T13:16:32.905Z,94680.59
2022-09-16T13:19:41.742Z,94679.19
2022-09-16T13:22:46.416Z,94661.41
2022-09-16T13:25:54.945Z,94673.09
2022-09-16T13:28:59.934Z,94672.78
2022-09-16T13:32:04.100Z,94674.97
2022-09-16T13:35:20.983Z,94670.09
2022-09-16T13:38:34.897Z,94670.06
2022-09-16T13:41:39.956Z,94665.75
2022-09-16T13:44:43.762Z,94668.88
2022-09-16T13:47:48.996Z,94672.13
2022-09-16T13:50:53.231Z,94682.81
2022-09-16T13:53:55.764Z,94698.00
2022-09-16T13:57:07.000Z,94678.59
2022-09-16T14:00:18.714Z,94687.91
2022-09-16T14:03:33.489Z,94690.28
2022-09-16T14:06:47.806Z,94677.00
2022-09-16T14:10:00.857Z,94688.69
2022-09-16T14:13:10.462Z,94699.63
2022-09-16T14:16:17.249Z,94709.66
2022-09-16T14:19:24.267Z,94724.59
2022-09-16T14:22:26.610Z,94716.16
2022-09-16T14:25:30.198Z,94681.47
2022-09-16T14:28:33.056Z,94692.97
2022-09-16T14:31:40.641Z,94708.66
2022-09-16T14:34:46.065Z,94727.38
2022-09-16T14:37:52.134Z,94737.94
2022-09-16T14:40:54.094Z,94739.91
2022-09-16T14:44:08.389Z,94733.50
2022-09-16T14:47:30.731Z,94750.97
2022-09-16T14:50:43.475Z,94744.28
2022-09-16T14:54:09.035Z,94753.56
2022-09-16T14:57:15.245Z,94759.41
2022-09-16T15:00:17.817Z,94776.00
2022-09-16T15:03:27.036Z,94789.75
2022-09-16T15:06:30.096Z,94787.16
2022-09-16T15:09:35.851Z,94795.38
2022-09-16T15:12:39.335Z,94782.16
2022-09-16T15:15:46.254Z,94789.84
2022-09-16T15:18:53.483Z,94787.59
2022-09-16T15:21:55.482Z,94770.97
2022-09-16T15:24:58.181Z,94773.19
2022-09-16T15:28:04.593Z,94770.44
2022-09-16T15:31:06.302Z,94771.81
2022-09-16T15:34:21.301Z,94768.78
2022-09-16T15:37:30.566Z,94777.75
2022-09-16T15:40:32.956Z,94792.41
2022-09-16T15:43:36.034Z,94801.19
2022-09-16T15:46:37.786Z,94799.31
2022-09-16T15:49:40.899Z,94817.06
2022-09-16T15:52:50.310Z,94832.13
2022-09-16T15:55:57.824Z,94839.75
2022-09-16T15:59:02.225Z,94843.06
2022-09-16T16:02:06.840Z,94848.38
2022-09-16T16:05:11.306Z,94852.69
2022-09-16T16:08:32.986Z,94847.50
2022-09-16T16:11:34.628Z,94859.09
2022-09-16T16:14:39.572Z,94864.47
2022-09-16T16:17:41.563Z,94864.75
2022-09-16T16:20:44.622Z,94864.94
2022-09-16T16:23:48.852Z,94873.97
2022-09-16T16:26:53.683Z,94875.09
2022-09-16T16:29:58.344Z,94872.84
2022-09-16T16:33:00.084Z,94878.94
2022-09-16T16:36:05.139Z,94870.72
2022-09-16T16:39:06.740Z,94881.59
2022-09-16T16:42:09.755Z,94868.91
2022-09-16T16:45:11.558Z,94883.25
2022-09-16T16:48:13.270Z,94875.97
2022-09-16T16:51:16.294Z,94867.56
2022-09-16T16:54:18.310Z,94871.06
2022-09-16T16:57:19.962Z,94872.13
2022-09-16T17:00:24.632Z,94868.91
2022-09-16T17:03:26.284Z,94870.59
2022-09-16T17:06:29.308Z,94864.03
2022-09-16T17:09:30.995Z,94872.13
2022-09-16T17:12:32.592Z,94862.19
2022-09-16T17:15:34.414Z,94854.81
2022-09-16T17:18:36.950Z,94848.69
2022-09-16T17:21:39.963Z,94852.53
2022-09-16T17:24:41.605Z,94848.63
2022-09-16T17:27:43.232Z,94845.53
2022-09-16T17:30:45.067Z,94855.53
2022-09-16T17:33:46.913Z,94853.47
2022-09-16T17:36:50.001Z,94863.00
2022-09-16T17:39:51.674Z,94878.47
2022-09-16T17:42:56.223Z,94866.16
2022-09-16T17:45:57.936Z,94872.00
2022-09-16T17:49:00.004Z,94879.41
2022-09-16T17:52:03.171Z,94872.72
2022-09-16T17:55:05.383Z,94883.00
2022-09-16T17:58:08.990Z,94885.75
2022-09-16T18:01:11.489Z,94888.88
2022-09-16T18:04:13.143Z,94895.31
2022-09-16T18:07:16.210Z,94895.00
2022-09-16T18:10:17.812Z,94900.97
2022-09-16T18:13:19.445Z,94907.56
2022-09-16T18:16:21.573Z,94905.34
2022-09-16T18:19:23.232Z,94900.31
2022-09-16T18:22:28.346Z,94895.16
2022-09-16T18:25:29.957Z,94898.19
2022-09-16T18:28:35.778Z,94891.59
2022-09-16T18:31:48.802Z,94907.75
2022-09-16T18:34:50.644Z,94903.94
2022-09-16T18:37:53.706Z,94893.91
2022-09-16T18:41:05.802Z,94885.72
2022-09-16T18:44:10.596Z,94886.13
2022-09-16T18:47:12.264Z,94891.03
2022-09-16T18:50:13.939Z,94898.66
2022-09-16T18:53:16.966Z,94897.84
2022-09-16T18:56:19.500Z,94899.97
2022-09-16T18:59:23.612Z,94907.59
2022-09-16T19:02:25.845Z,94908.16
2022-09-16T19:05:27.583Z,94902.66
2022-09-16T19:08:30.599Z,94914.53
2022-09-16T19:11:32.898Z,94909.13
2022-09-16T19:14:34.552Z,94903.66
2022-09-16T19:17:36.310Z,94911.50
2022-09-16T19:20:41.992Z,94904.34
2022-09-16T19:23:47.506Z,94901.97
2022-09-16T19:26:50.437Z,94898.13
2022-09-16T19:29:52.063Z,94903.59
2022-09-16T19:32:53.813Z,94905.53
2022-09-16T19:35:55.580Z,94903.53
2022-09-16T19:38:59.001Z,94898.53
2022-09-16T19:42:00.637Z,94906.97
2022-09-16T19:45:02.289Z,94891.56
2022-09-16T19:48:04.075Z,94887.66
2022-09-16T19:51:06.312Z,94890.63
2022-09-16T19:54:09.318Z,94885.97
2022-09-16T19:57:11.007Z,94885.56
2022-09-16T20:00:13.156Z,94882.91
2022-09-16T20:03:14.802Z,94871.84
2022-09-16T20:06:17.332Z,94876.00
2022-09-16T20:09:20.356Z,94872.97
2022-09-16T20:12:21.975Z,94890.72
2022-09-16T20:15:23.604Z,94892.59
2022-09-16T20:18:27.491Z,94885.28
2022-09-16T20:21:29.140Z,94882.19
2022-09-16T20:24:35.317Z,94881.38
2022-09-16T20:27:36.943Z,94875.59
2022-09-16T20:30:38.625Z,94876.34
2022-09-16T20:33:40.567Z,94864.41
2022-09-16T20:36:43.434Z,94868.22
2022-09-16T20:39:47.464Z,94863.19
2022-09-16T20:42:49.311Z,94866.28
2022-09-16T20:45:50.991Z,94877.94
2022-09-16T20:48:53.061Z,94878.34
2022-09-16T20:51:54.807Z,94878.75
2022-09-16T20:54:57.802Z,94876.88
2022-09-16T20:57:59.457Z,94878.75
2022-09-16T21:01:04.568Z,94883.38
2022-09-16T21:04:06.969Z,94873.31
2022-09-16T21:07:08.587Z,94877.56
2022-09-16T21:10:11.688Z,94885.63
2022-09-16T21:13:13.309Z,94887.19
2022-09-16T21:16:15.639Z,94888.63
2022-09-16T21:19:17.386Z,94891.38
2022-09-16T21:22:19.050Z,94890.31
2022-09-16T21:25:22.060Z,94890.63
2022-09-16T21:28:23.712Z,94894.03
2022-09-16T21:31:27.087Z,94890.56
2022-09-16T21:34:28.738Z,94897.81
2022-09-16T21:37:34.312Z,94892.00
2022-09-16T21:40:39.864Z,94903.59
2022-09-16T21:43:42.628Z,94907.75
2022-09-16T21:46:45.398Z,94905.72
2022-09-16T21:49:47.229Z,94902.69
2022-09-16T21:52:48.852Z,94908.44
2022-09-16T21:55:51.857Z,94902.97
2022-09-16T21:58:54.390Z,94897.94
2022-09-16T22:01:58.977Z,94900.59
2022-09-16T22:05:05.044Z,94894.81
2022-09-16T22:08:06.649Z,94898.72
2022-09-16T22:11:10.251Z,94900.31
2022-09-16T22:14:11.855Z,94885.88
2022-09-16T22:17:13.488Z,94880.66
2022-09-16T22:20:15.142Z,94882.88
2022-09-16T22:23:16.819Z,94884.59
2022-09-16T22:26:20.872Z,94882.22
2022-09-16T22:29:22.890Z,94868.25
2022-09-16T22:32:24.532Z,94863.38
2022-09-16T22:35:26.385Z,94869.06
2022-09-16T22:38:28.154Z,94871.06
2022-09-16T22:41:31.183Z,94867.09
2022-09-16T22:44:32.802Z,94853.53
2022-09-16T22:47:34.521Z,94854.25
2022-09-16T22:50:36.127Z,94848.91
2022-09-16T22:53:37.786Z,94846.84
2022-09-16T22:56:41.328Z,94846.47
2022-09-16T22:59:42.956Z,94839.56
2022-09-16T23:02:44.641Z,94844.16
2022-09-16T23:05:55.814Z,94846.06
2022-09-16T23:08:57.945Z,94850.28
2022-09-16T23:12:01.108Z,94839.00
2022-09-16T23:15:02.755Z,94848.56
2022-09-16T23:18:07.620Z,94847.34
2022-09-16T23:21:10.148Z,94843.53
2022-09-16T23:24:14.059Z,94846.59
2022-09-16T23:27:17.054Z,94850.06
2022-09-16T23:30:18.868Z,94852.00
2022-09-16T23:33:20.509Z,94853.44
2022-09-16T23:36:22.738Z,94853.34
2022-09-16T23:39:24.447Z,94856.88
2022-09-16T23:42:27.585Z,94861.66
2022-09-16T23:45:29.219Z,94852.00
2022-09-16T23:48:31.226Z,94845.13
2022-09-16T23:51:32.932Z,94855.44
2022-09-16T23:54:34.578Z,94854.75
2022-09-16T23:57:38.722Z,94845.06
